Time;durP1;ratioP1;P1;durP2;ratioP2;P2;SDS_P1;SDS_P2;PMS_P1;PMS_P2;Temp;Humidity;BMP_temperature;BMP_pressure;BME280_temperature;BME280_humidity;BME280_pressure;Samples;Min_cycle;Max_cycle;Signal;HPM_P1;HPM_P2
2022/06/11 00:02:04;;;;;;;12.65;9.13;;;16.90;99.90;;;;;;4886289;29;20073;-84
2022/06/11 00:04:30;;;;;;;18.45;11.40;;;16.80;99.90;;;;;;4873344;29;20045;-83
2022/06/11 00:07:16;;;;;;;15.68;9.57;;;16.90;99.90;;;;;;4903416;29;20048;-84
2022/06/11 00:09:42;;;;;;;15.57;9.35;;;16.90;99.90;;;;;;4871724;29;20142;-83
2022/06/11 00:12:09;;;;;;;15.30;9.40;;;16.80;99.90;;;;;;4864374;29;20056;-84
2022/06/11 00:14:35;;;;;;;16.42;9.70;;;16.80;99.90;;;;;;4867217;29;20044;-84
2022/06/11 00:17:03;;;;;;;15.80;10.88;;;16.80;99.90;;;;;;4860306;29;20108;-84
2022/06/11 00:19:30;;;;;;;12.95;10.18;;;16.80;99.90;;;;;;4870014;29;20128;-84
2022/06/11 00:21:57;;;;;;;17.20;10.82;;;16.70;99.90;;;;;;4874210;29;20044;-83
2022/06/11 00:24:24;;;;;;;17.45;11.40;;;16.70;99.90;;;;;;4867610;29;20044;-84
2022/06/11 00:26:51;;;;;;;14.88;11.55;;;16.60;99.90;;;;;;4867377;29;20044;-84
2022/06/11 00:29:19;;;;;;;17.13;11.40;;;16.60;99.90;;;;;;4878590;29;20041;-84
2022/06/11 00:31:46;;;;;;;14.10;10.63;;;16.50;99.90;;;;;;4879956;29;20088;-84
2022/06/11 00:34:13;;;;;;;15.13;10.25;;;16.50;99.90;;;;;;4876012;29;20080;-84
2022/06/11 00:36:40;;;;;;;14.23;10.65;;;16.40;99.90;;;;;;4848668;29;20076;-84
2022/06/11 00:39:10;;;;;;;16.52;10.18;;;16.40;99.90;;;;;;4867356;29;20044;-84
2022/06/11 00:41:39;;;;;;;17.40;10.68;;;16.40;99.90;;;;;;4882491;29;20128;-84
2022/06/11 00:44:05;;;;;;;19.05;11.10;;;16.30;99.90;;;;;;4867140;29;20052;-83
2022/06/11 00:46:56;;;;;;;18.48;13.38;;;16.30;99.90;;;;;;4866886;29;20037;-82
2022/06/11 00:49:32;;;;;;;19.90;13.25;;;16.30;99.90;;;;;;4854571;29;20048;-84
2022/06/11 00:52:10;;;;;;;16.42;12.45;;;16.30;99.90;;;;;;4863887;29;20104;-82
2022/06/11 00:54:38;;;;;;;15.05;11.48;;;16.30;99.90;;;;;;4872225;29;20131;-84
2022/06/11 00:57:05;;;;;;;16.95;11.95;;;16.20;99.90;;;;;;4849255;29;20049;-84
2022/06/11 00:59:37;;;;;;;14.90;10.75;;;16.30;99.90;;;;;;4855455;29;20466;-84
2022/06/11 01:02:05;;;;;;;13.52;10.20;;;16.20;99.90;;;;;;4882430;29;20498;-83
2022/06/11 01:04:49;;;;;;;17.75;10.35;;;16.30;99.90;;;;;;4898771;29;20084;-83
2022/06/11 01:07:30;;;;;;;13.05;9.45;;;16.30;99.90;;;;;;4853724;29;20041;-84
2022/06/11 01:10:09;;;;;;;13.52;9.13;;;16.30;99.90;;;;;;4874214;29;20053;-84
2022/06/11 01:13:03;;;;;;;15.15;9.55;;;16.30;99.90;;;;;;4875479;29;20045;-84
2022/06/11 01:15:43;;;;;;;13.27;9.30;;;16.20;99.90;;;;;;4849636;29;20045;-84
2022/06/11 01:18:33;;;;;;;11.93;9.10;;;16.20;99.90;;;;;;4855508;29;20497;-84
2022/06/11 01:21:11;;;;;;;11.32;8.38;;;16.10;99.90;;;;;;4857905;29;20128;-84
2022/06/11 01:23:46;;;;;;;12.25;7.90;;;16.10;99.90;;;;;;4866085;29;20052;-84
2022/06/11 01:26:27;;;;;;;11.77;7.72;;;16.00;99.90;;;;;;4881562;29;20056;-83
2022/06/11 01:29:10;;;;;;;12.50;8.68;;;16.00;99.90;;;;;;4881288;29;20049;-83
2022/06/11 01:31:57;;;;;;;10.10;7.47;;;15.90;99.90;;;;;;4865756;29;20080;-83
2022/06/11 01:34:29;;;;;;;11.90;8.20;;;15.90;99.90;;;;;;4864665;29;20033;-84
2022/06/11 01:37:02;;;;;;;12.48;7.97;;;15.80;99.90;;;;;;4880987;29;20604;-84
2022/06/11 01:39:49;;;;;;;12.45;7.80;;;15.80;99.90;;;;;;4866044;29;20075;-84
2022/06/11 01:42:27;;;;;;;10.00;8.13;;;15.80;99.90;;;;;;4848548;29;20407;-84
2022/06/11 01:45:14;;;;;;;11.07;7.38;;;15.80;99.90;;;;;;4865883;29;20045;-84
2022/06/11 01:47:41;;;;;;;13.20;7.60;;;15.70;99.90;;;;;;4844350;29;20399;-83
2022/06/11 01:50:10;;;;;;;11.40;7.63;;;15.70;99.90;;;;;;4858387;29;20053;-83
2022/06/11 01:52:53;;;;;;;11.40;7.60;;;15.70;99.90;;;;;;4881783;29;20364;-83
2022/06/11 01:55:31;;;;;;;12.80;8.48;;;15.70;99.90;;;;;;4862495;29;20084;-83
2022/06/11 01:58:15;;;;;;;10.43;7.90;;;15.70;99.90;;;;;;4847543;29;20088;-83
2022/06/11 02:00:57;;;;;;;13.63;7.68;;;15.60;99.90;;;;;;4848959;29;20055;-82
2022/06/11 02:03:29;;;;;;;10.43;7.40;;;15.60;99.90;;;;;;4865630;29;20045;-82
2022/06/11 02:06:10;;;;;;;13.10;8.27;;;15.50;99.90;;;;;;4862960;29;20041;-82
2022/06/11 02:08:41;;;;;;;15.05;11.68;;;15.50;99.90;;;;;;4864461;29;20080;-82
2022/06/11 02:11:26;;;;;;;15.32;11.45;;;15.50;99.90;;;;;;4865863;29;20127;-83
2022/06/11 02:13:54;;;;;;;9.95;8.10;;;15.50;99.90;;;;;;4859136;29;20037;-83
2022/06/11 02:16:47;;;;;;;6.57;5.93;;;15.40;99.90;;;;;;4846603;29;20098;-83
2022/06/11 02:19:19;;;;;;;7.88;5.63;;;15.30;99.90;;;;;;4852272;29;20040;-82
2022/06/11 02:21:51;;;;;;;8.30;6.72;;;15.20;99.90;;;;;;4861720;29;20061;-82
2022/06/11 02:24:22;;;;;;;15.10;10.10;;;15.20;99.90;;;;;;4855339;29;20168;-82
2022/06/11 02:26:52;;;;;;;19.33;12.32;;;15.20;99.90;;;;;;4876853;29;20052;-83
2022/06/11 02:29:21;;;;;;;20.60;13.40;;;15.20;99.90;;;;;;4857463;29;20608;-83
2022/06/11 02:31:55;;;;;;;19.67;14.27;;;15.30;99.90;;;;;;4866370;29;20036;-83
2022/06/11 02:34:24;;;;;;;14.60;11.40;;;15.20;99.90;;;;;;4856989;29;20123;-82
2022/06/11 02:37:16;;;;;;;21.35;14.20;;;15.30;99.90;;;;;;4847003;29;20045;-82
2022/06/11 02:39:42;;;;;;;17.77;12.93;;;15.30;99.90;;;;;;4902376;29;20048;-82
2022/06/11 02:42:12;;;;;;;13.57;11.18;;;15.20;99.90;;;;;;4899906;29;20120;-83
2022/06/11 02:44:38;;;;;;;16.10;13.48;;;15.20;99.90;;;;;;4860509;29;20068;-82
2022/06/11 02:47:04;;;;;;;20.73;14.30;;;15.20;99.90;;;;;;4897863;29;20052;-83
2022/06/11 02:49:36;;;;;;;19.58;15.27;;;15.20;99.90;;;;;;4870553;29;20097;-82
2022/06/11 02:52:13;;;;;;;18.02;14.18;;;15.20;99.90;;;;;;4846436;29;20083;-83
2022/06/11 02:54:40;;;;;;;19.98;14.10;;;15.30;99.90;;;;;;4874292;29;20059;-83
2022/06/11 02:57:13;;;;;;;18.95;14.63;;;15.30;99.90;;;;;;4862190;29;20037;-83
2022/06/11 02:59:40;;;;;;;19.92;15.05;;;15.30;99.90;;;;;;4852810;29;20044;-82
2022/06/11 03:02:06;;;;;;;16.38;14.57;;;15.20;99.90;;;;;;4879678;29;20054;-82
2022/06/11 03:04:32;;;;;;;18.50;13.60;;;15.20;99.90;;;;;;4859656;29;20041;-82
2022/06/11 03:06:59;;;;;;;18.08;13.50;;;15.20;99.90;;;;;;4845377;29;20056;-82
2022/06/11 03:09:29;;;;;;;16.10;13.45;;;15.20;99.90;;;;;;4845602;29;20049;-82
2022/06/11 03:11:55;;;;;;;16.10;12.80;;;15.20;99.90;;;;;;4850948;29;20056;-82
2022/06/11 03:14:21;;;;;;;21.48;13.13;;;15.20;99.90;;;;;;4861936;29;20056;-81
2022/06/11 03:16:46;;;;;;;19.17;12.68;;;15.20;99.90;;;;;;4855149;29;20045;-81
2022/06/11 03:19:13;;;;;;;17.83;12.63;;;15.20;99.90;;;;;;4829584;29;20041;-82
2022/06/11 03:21:40;;;;;;;18.65;13.65;;;15.20;99.90;;;;;;4846996;29;20069;-82
2022/06/11 03:24:07;;;;;;;16.55;12.00;;;15.10;99.90;;;;;;4863435;29;20108;-82
2022/06/11 03:26:34;;;;;;;15.00;12.35;;;15.10;99.90;;;;;;4866489;29;20419;-82
2022/06/11 03:29:00;;;;;;;16.33;13.32;;;15.00;99.90;;;;;;4844999;29;20103;-82
2022/06/11 03:31:25;;;;;;;19.15;13.35;;;15.00;99.90;;;;;;4838013;29;20422;-82
2022/06/11 03:33:51;;;;;;;14.35;12.30;;;15.00;99.90;;;;;;4859563;29;20072;-82
2022/06/11 03:36:18;;;;;;;19.52;12.30;;;15.00;99.90;;;;;;4844774;29;20056;-82
2022/06/11 03:38:46;;;;;;;19.42;13.20;;;15.00;99.90;;;;;;4860015;29;20048;-82
2022/06/11 03:41:13;;;;;;;19.42;13.30;;;15.00;99.90;;;;;;4873123;29;20411;-82
2022/06/11 03:43:40;;;;;;;21.20;13.88;;;15.00;99.90;;;;;;4860799;29;20055;-81
2022/06/11 03:46:07;;;;;;;22.52;14.23;;;15.00;99.90;;;;;;4858421;29;20059;-80
2022/06/11 03:48:36;;;;;;;17.40;13.88;;;15.00;99.90;;;;;;4848398;29;20041;-81
2022/06/11 03:51:03;;;;;;;22.63;14.57;;;15.00;99.90;;;;;;4848299;29;20049;-81
2022/06/11 03:53:30;;;;;;;21.05;14.48;;;15.00;99.90;;;;;;4845412;29;20132;-81
2022/06/11 03:55:57;;;;;;;21.65;14.70;;;15.10;99.90;;;;;;4850444;29;20036;-82
2022/06/11 03:58:24;;;;;;;22.73;13.73;;;15.10;99.90;;;;;;4843233;29;20413;-81
2022/06/11 04:03:37;;;;;;;18.85;13.38;;;15.20;99.90;;;;;;4873314;29;20518;-83
2022/06/11 04:06:04;;;;;;;23.17;13.57;;;15.20;99.90;;;;;;4868455;29;20045;-82
2022/06/11 04:08:30;;;;;;;14.85;12.05;;;15.20;99.90;;;;;;4860893;29;20487;-81
2022/06/11 04:10:57;;;;;;;17.20;13.35;;;15.20;99.90;;;;;;4845981;29;20048;-82
2022/06/11 04:13:25;;;;;;;17.00;12.13;;;15.30;99.90;;;;;;4860056;29;20048;-82
2022/06/11 04:15:51;;;;;;;20.25;12.40;;;15.30;99.90;;;;;;4857885;29;20052;-82
2022/06/11 04:18:26;;;;;;;17.35;11.05;;;15.30;99.90;;;;;;4846231;29;20049;-82
2022/06/11 04:20:53;;;;;;;16.00;11.50;;;15.30;99.90;;;;;;4864728;29;20063;-82
2022/06/11 04:23:18;;;;;;;16.30;11.23;;;15.40;99.90;;;;;;4861120;29;20044;-83
2022/06/11 04:25:45;;;;;;;18.00;11.57;;;15.40;99.90;;;;;;4846713;29;20560;-83
2022/06/11 04:28:12;;;;;;;16.83;11.70;;;15.40;99.90;;;;;;4846369;29;20040;-82
2022/06/11 04:30:38;;;;;;;15.70;10.60;;;15.40;99.90;;;;;;4849079;29;20037;-79
2022/06/11 04:33:05;;;;;;;14.90;11.10;;;15.50;99.90;;;;;;4862238;29;20078;-81
2022/06/11 04:35:31;;;;;;;16.63;10.27;;;15.50;99.90;;;;;;4866547;29;20041;-79
2022/06/11 04:37:58;;;;;;;16.45;9.13;;;15.50;99.90;;;;;;4848984;29;20044;-81
2022/06/11 04:40:24;;;;;;;13.30;8.70;;;15.50;99.90;;;;;;4858456;29;20115;-81
2022/06/11 04:42:50;;;;;;;15.63;9.50;;;15.50;99.90;;;;;;4852982;29;20079;-81
2022/06/11 04:45:18;;;;;;;11.40;8.10;;;15.50;99.90;;;;;;4845518;29;20061;-81
2022/06/11 04:47:45;;;;;;;18.60;7.75;;;15.60;99.90;;;;;;4829895;29;20077;-82
2022/06/11 04:50:15;;;;;;;14.25;7.03;;;15.60;99.90;;;;;;4845205;29;20041;-83
2022/06/11 04:52:40;;;;;;;13.68;7.78;;;15.70;99.90;;;;;;4872364;29;20079;-81
2022/06/11 04:55:07;;;;;;;14.10;6.75;;;15.60;99.90;;;;;;4848306;29;20503;-81
2022/06/11 04:57:33;;;;;;;15.43;7.10;;;15.60;99.90;;;;;;4860698;29;20072;-82
2022/06/11 04:59:59;;;;;;;10.32;5.88;;;15.60;99.90;;;;;;4868087;29;20044;-83
2022/06/11 05:02:25;;;;;;;13.68;5.95;;;15.70;99.90;;;;;;4859582;29;20052;-82
2022/06/11 05:04:52;;;;;;;14.60;5.47;;;15.60;99.90;;;;;;4863249;29;20068;-82
2022/06/11 05:07:20;;;;;;;14.90;5.47;;;15.70;99.90;;;;;;4845082;29;20132;-83
2022/06/11 05:09:45;;;;;;;9.05;5.38;;;15.70;99.90;;;;;;4835225;29;20040;-84
2022/06/11 05:12:12;;;;;;;15.30;6.03;;;15.60;99.90;;;;;;4881781;29;20458;-82
2022/06/11 05:14:38;;;;;;;14.48;6.03;;;15.70;99.90;;;;;;4874615;29;20035;-82
2022/06/11 05:17:04;;;;;;;15.45;5.25;;;15.70;99.90;;;;;;4886999;29;20052;-83
2022/06/11 05:19:30;;;;;;;16.70;5.43;;;15.70;99.90;;;;;;4870995;29;20472;-81
2022/06/11 05:21:56;;;;;;;13.98;4.75;;;15.70;99.90;;;;;;4856057;29;20049;-80
2022/06/11 05:24:22;;;;;;;14.45;4.95;;;15.80;99.90;;;;;;4858179;29;20060;-82
2022/06/11 05:27:03;;;;;;;12.23;4.40;;;15.80;99.90;;;;;;4848782;29;20084;-80
2022/06/11 05:29:52;;;;;;;15.45;4.80;;;15.80;99.90;;;;;;4847052;29;20083;-82
2022/06/11 05:32:19;;;;;;;11.45;4.30;;;15.80;99.90;;;;;;4844003;29;20051;-83
2022/06/11 05:34:46;;;;;;;13.82;4.00;;;15.80;99.90;;;;;;4856978;29;20044;-81
2022/06/11 05:37:13;;;;;;;15.48;4.78;;;15.90;99.90;;;;;;4866028;29;20443;-83
2022/06/11 05:39:41;;;;;;;15.25;5.15;;;15.90;99.90;;;;;;4852746;29;20132;-82
2022/06/11 05:42:08;;;;;;;12.60;3.95;;;16.00;99.90;;;;;;4862723;29;20132;-80
2022/06/11 05:44:34;;;;;;;11.68;4.65;;;16.00;99.90;;;;;;4867728;29;20049;-81
2022/06/11 05:47:00;;;;;;;15.95;4.65;;;16.10;99.90;;;;;;4861056;29;20112;-84
2022/06/11 05:49:32;;;;;;;17.40;4.03;;;16.20;99.90;;;;;;4881262;29;20044;-82
2022/06/11 05:52:01;;;;;;;13.13;4.03;;;16.30;99.90;;;;;;4858691;29;20045;-81
2022/06/11 05:54:32;;;;;;;14.68;4.38;;;16.30;99.90;;;;;;4868976;29;20045;-81
2022/06/11 05:56:58;;;;;;;14.43;4.20;;;16.40;99.90;;;;;;4864428;29;20758;-81
2022/06/11 05:59:29;;;;;;;15.45;4.35;;;16.50;99.90;;;;;;4849468;29;20470;-83
2022/06/11 06:01:58;;;;;;;14.90;3.95;;;16.60;99.90;;;;;;4862132;29;20060;-83
2022/06/11 06:04:24;;;;;;;13.80;4.85;;;16.70;99.90;;;;;;4862402;29;20084;-83
2022/06/11 06:06:50;;;;;;;13.15;4.40;;;16.80;99.90;;;;;;4847282;29;20076;-82
2022/06/11 06:09:15;;;;;;;17.67;4.45;;;16.90;99.90;;;;;;4850823;29;20096;-82
2022/06/11 06:11:41;;;;;;;14.98;4.45;;;17.10;99.90;;;;;;4847144;29;20403;-81
2022/06/11 06:14:07;;;;;;;14.68;4.40;;;17.20;99.90;;;;;;4864205;29;20106;-84
2022/06/11 06:16:33;;;;;;;17.02;4.55;;;17.20;99.90;;;;;;4889257;29;20084;-82
2022/06/11 06:19:01;;;;;;;18.55;4.75;;;17.30;99.90;;;;;;4849366;29;20053;-82
2022/06/11 06:21:31;;;;;;;13.60;4.55;;;17.40;99.90;;;;;;4831747;29;20056;-81
2022/06/11 06:23:57;;;;;;;17.13;4.82;;;17.50;99.90;;;;;;4861381;29;20041;-84
2022/06/11 06:26:23;;;;;;;14.63;4.30;;;17.50;99.90;;;;;;4854540;29;20186;-84
2022/06/11 06:28:50;;;;;;;14.55;4.60;;;17.70;99.90;;;;;;4877824;29;20422;-81
2022/06/11 06:31:16;;;;;;;16.05;4.47;;;17.60;99.90;;;;;;4854259;29;20494;-82
2022/06/11 06:33:42;;;;;;;16.13;4.63;;;17.70;99.90;;;;;;4849890;29;20109;-80
2022/06/11 06:36:10;;;;;;;15.20;4.55;;;17.80;99.90;;;;;;4861123;29;20415;-80
2022/06/11 06:38:36;;;;;;;18.70;4.68;;;17.80;99.90;;;;;;4848942;29;20436;-80
2022/06/11 06:41:03;;;;;;;14.27;4.60;;;17.80;99.90;;;;;;4878972;29;20402;-79
2022/06/11 06:43:29;;;;;;;13.88;4.47;;;18.00;99.90;;;;;;4852984;29;20052;-79
2022/06/11 06:45:55;;;;;;;20.63;5.10;;;18.00;99.90;;;;;;4868644;29;20044;-81
2022/06/11 06:48:20;;;;;;;15.48;4.95;;;18.10;99.90;;;;;;4860347;29;20033;-80
2022/06/11 06:50:47;;;;;;;16.58;4.10;;;18.30;99.90;;;;;;4867190;29;20048;-80
2022/06/11 06:53:13;;;;;;;17.73;4.55;;;18.40;99.90;;;;;;4863735;29;20044;-79
2022/06/11 06:55:39;;;;;;;14.82;4.88;;;18.40;99.90;;;;;;4873461;29;20052;-81
2022/06/11 06:58:04;;;;;;;12.15;4.70;;;18.60;99.90;;;;;;4859559;29;20063;-81
2022/06/11 07:00:30;;;;;;;17.17;5.72;;;18.80;99.90;;;;;;4869187;29;20052;-81
2022/06/11 07:02:56;;;;;;;12.63;4.53;;;18.90;99.90;;;;;;4878847;29;20040;-81
2022/06/11 07:05:23;;;;;;;12.43;4.28;;;19.00;99.90;;;;;;4845467;29;20067;-81
2022/06/11 07:07:49;;;;;;;15.25;4.35;;;19.20;99.90;;;;;;4854563;29;20092;-81
2022/06/11 07:10:16;;;;;;;12.55;4.30;;;19.30;99.90;;;;;;4864611;29;20041;-82
2022/06/11 07:12:42;;;;;;;16.77;4.70;;;19.30;99.90;;;;;;4869383;29;20100;-81
2022/06/11 07:15:08;;;;;;;18.42;4.68;;;19.40;99.90;;;;;;4878274;29;20037;-80
2022/06/11 07:17:45;;;;;;;18.20;4.75;;;19.40;99.90;;;;;;4857244;29;20063;-82
2022/06/11 07:20:17;;;;;;;17.85;4.40;;;19.40;99.90;;;;;;4849075;29;20049;-81
2022/06/11 07:22:48;;;;;;;14.50;4.28;;;19.40;99.90;;;;;;4879547;29;20100;-79
2022/06/11 07:25:14;;;;;;;14.07;4.38;;;19.50;99.90;;;;;;4863048;29;20046;-81
2022/06/11 07:27:45;;;;;;;19.77;4.90;;;19.50;99.90;;;;;;4871433;29;20045;-81
2022/06/11 07:30:14;;;;;;;13.77;4.43;;;19.50;99.90;;;;;;4848142;29;20097;-82
2022/06/11 07:32:43;;;;;;;13.85;4.57;;;19.60;99.90;;;;;;4845877;29;20395;-80
2022/06/11 07:35:12;;;;;;;13.02;4.47;;;19.70;99.90;;;;;;4858421;29;20044;-82
2022/06/11 07:37:40;;;;;;;23.60;4.90;;;19.60;99.90;;;;;;4854770;29;20101;-80
2022/06/11 07:40:07;;;;;;;22.15;4.85;;;19.60;99.90;;;;;;4831656;29;20053;-80
2022/06/11 07:42:33;;;;;;;20.88;4.97;;;19.50;99.90;;;;;;4878320;29;20108;-81
2022/06/11 07:44:59;;;;;;;19.52;5.20;;;19.40;99.90;;;;;;4863430;29;20056;-82
2022/06/11 07:50:11;;;;;;;21.83;5.80;;;19.60;99.90;;;;;;4847819;29;20419;-81
2022/06/11 07:52:38;;;;;;;20.20;5.13;;;19.80;99.90;;;;;;4861276;29;20045;-80
2022/06/11 07:55:05;;;;;;;15.00;4.85;;;20.00;99.90;;;;;;4883495;29;20033;-82
2022/06/11 07:57:31;;;;;;;23.77;5.03;;;20.10;99.90;;;;;;4883280;29;20173;-82
2022/06/11 07:59:57;;;;;;;16.08;4.68;;;20.20;99.90;;;;;;4868546;29;20064;-82
2022/06/11 08:02:24;;;;;;;20.85;5.35;;;20.40;99.90;;;;;;4859458;29;20097;-83
2022/06/11 08:04:50;;;;;;;21.02;4.63;;;20.50;99.90;;;;;;4858887;29;20043;-80
2022/06/11 08:07:16;;;;;;;20.80;5.05;;;20.40;99.90;;;;;;4882103;29;20413;-83
2022/06/11 08:09:41;;;;;;;15.95;4.82;;;20.30;99.90;;;;;;4854549;29;20052;-81
2022/06/11 08:12:07;;;;;;;14.38;4.75;;;20.10;99.90;;;;;;4885441;29;20550;-81
2022/06/11 08:14:33;;;;;;;19.60;4.93;;;19.90;99.90;;;;;;4847573;29;20041;-82
2022/06/11 08:16:59;;;;;;;21.67;4.82;;;20.00;99.90;;;;;;4848420;29;20416;-83
2022/06/11 08:19:24;;;;;;;17.15;5.18;;;20.30;99.90;;;;;;4862885;29;20055;-80
2022/06/11 08:21:50;;;;;;;12.75;5.15;;;20.30;99.90;;;;;;4836055;29;20087;-82
2022/06/11 08:24:16;;;;;;;19.95;4.80;;;20.50;99.90;;;;;;4844666;29;20049;-81
2022/06/11 08:26:41;;;;;;;19.15;4.93;;;20.60;99.90;;;;;;4880027;29;20463;-81
2022/06/11 08:29:07;;;;;;;17.30;4.32;;;20.70;99.90;;;;;;4866596;29;20045;-81
2022/06/11 08:31:33;;;;;;;15.98;4.45;;;20.70;99.90;;;;;;4845642;29;20056;-82
2022/06/11 08:33:58;;;;;;;23.88;5.55;;;20.70;99.90;;;;;;4860596;29;20056;-82
2022/06/11 08:36:24;;;;;;;14.18;4.80;;;20.70;99.90;;;;;;4855862;29;20180;-81
2022/06/11 08:38:50;;;;;;;17.27;5.43;;;20.70;99.90;;;;;;4837166;29;20052;-81
2022/06/11 08:41:20;;;;;;;17.00;5.00;;;20.50;99.90;;;;;;4866678;29;20541;-80
2022/06/11 08:44:09;;;;;;;18.70;4.90;;;20.70;99.90;;;;;;4881968;29;20076;-81
2022/06/11 08:46:38;;;;;;;22.08;4.68;;;20.60;99.90;;;;;;4855992;29;20056;-81
2022/06/11 08:49:16;;;;;;;17.33;5.00;;;20.30;99.90;;;;;;4850462;29;20679;-81
2022/06/11 08:51:56;;;;;;;18.02;4.35;;;20.30;99.90;;;;;;4866593;29;20454;-82
2022/06/11 08:54:44;;;;;;;23.65;5.47;;;20.50;99.90;;;;;;4851491;29;20048;-81
2022/06/11 08:57:09;;;;;;;17.55;5.22;;;20.90;99.90;;;;;;4877722;29;20045;-81
2022/06/11 08:59:59;;;;;;;25.88;5.68;;;21.10;99.90;;;;;;4856991;29;20056;-81
2022/06/11 09:02:50;;;;;;;17.75;4.88;;;21.40;99.90;;;;;;4839749;29;20055;-81
2022/06/11 09:05:30;;;;;;;15.77;4.68;;;21.60;99.90;;;;;;4863301;29;20121;-80
2022/06/11 09:08:08;;;;;;;15.40;4.35;;;21.70;99.90;;;;;;4851455;29;20041;-80
2022/06/11 09:10:48;;;;;;;12.27;4.53;;;21.70;99.90;;;;;;4877865;29;20045;-81
2022/06/11 09:13:35;;;;;;;16.40;4.22;;;21.60;99.90;;;;;;4868791;29;20072;-81
2022/06/11 09:16:23;;;;;;;17.35;4.15;;;21.40;99.90;;;;;;4848024;29;20041;-81
2022/06/11 09:19:26;;;;;;;14.57;4.45;;;21.50;99.90;;;;;;4854269;29;20408;-80
2022/06/11 09:21:57;;;;;;;17.15;4.70;;;21.70;99.90;;;;;;4881324;29;20076;-81
2022/06/11 09:24:42;;;;;;;13.65;4.22;;;21.70;99.90;;;;;;4866435;29;20565;-82
2022/06/11 09:27:36;;;;;;;15.20;4.03;;;22.00;99.90;;;;;;4881977;29;20104;-81
2022/06/11 09:30:08;;;;;;;15.32;4.13;;;22.30;99.90;;;;;;4848478;29;20037;-81
2022/06/11 09:32:50;;;;;;;19.38;4.93;;;22.40;99.90;;;;;;4862863;29;20108;-82
2022/06/11 09:35:36;;;;;;;17.10;4.50;;;22.50;99.90;;;;;;4847662;29;20564;-80
2022/06/11 09:38:13;;;;;;;17.65;4.10;;;22.50;99.90;;;;;;4880286;29;20044;-83
2022/06/11 09:40:44;;;;;;;15.77;4.32;;;22.60;99.90;;;;;;4857497;29;20073;-80
2022/06/11 09:43:37;;;;;;;12.05;4.50;;;22.70;99.90;;;;;;4849272;29;20084;-79
2022/06/11 09:46:14;;;;;;;12.73;3.80;;;22.60;99.90;;;;;;4846974;29;20037;-82
2022/06/11 09:49:07;;;;;;;10.30;3.92;;;22.30;99.90;;;;;;4858385;29;20104;-81
2022/06/11 09:51:49;;;;;;;17.73;4.22;;;22.00;99.90;;;;;;4842321;29;20136;-81
2022/06/11 09:54:20;;;;;;;16.40;4.78;;;22.00;99.90;;;;;;4861362;29;20066;-83
2022/06/11 09:56:58;;;;;;;;;;;22.10;99.90;;;;;;4859265;29;20076;-81
2022/06/11 09:59:39;;;;;;;13.32;3.67;;;22.10;99.90;;;;;;4847350;29;19930;-83
2022/06/11 10:02:10;;;;;;;13.57;3.77;;;22.20;99.90;;;;;;4855137;29;20057;-83
2022/06/11 10:04:41;;;;;;;11.02;3.65;;;22.50;99.90;;;;;;4862941;29;20345;-80
2022/06/11 10:07:40;;;;;;;13.50;3.75;;;22.40;99.90;;;;;;4858371;29;20053;-82
2022/06/11 10:10:12;;;;;;;12.85;3.60;;;22.60;99.90;;;;;;4873479;29;20053;-81
2022/06/11 10:12:48;;;;;;;14.15;3.05;;;22.90;99.90;;;;;;4846622;29;20507;-81
2022/06/11 10:15:23;;;;;;;12.38;2.95;;;23.00;99.90;;;;;;4857484;29;20057;-81
2022/06/11 10:17:52;;;;;;;9.80;2.97;;;23.20;99.90;;;;;;4867669;29;20052;-82
2022/06/11 10:20:39;;;;;;;14.75;3.40;;;23.10;99.90;;;;;;4851307;29;20068;-83
2022/06/11 10:23:31;;;;;;;16.55;3.55;;;23.10;99.90;;;;;;4878875;29;20135;-82
2022/06/11 10:26:19;;;;;;;13.95;3.45;;;23.10;99.90;;;;;;4851811;29;20052;-83
2022/06/11 10:29:33;;;;;;;10.02;3.30;;;23.20;99.90;;;;;;4873138;29;20882;-82
2022/06/11 10:32:12;;;;;;;10.63;3.30;;;23.30;99.90;;;;;;4858644;29;20060;-81
2022/06/11 10:34:43;;;;;;;11.50;2.72;;;23.40;91.20;;;;;;4914717;29;20056;-80
2022/06/11 10:37:38;;;;;;;13.30;3.00;;;23.50;99.00;;;;;;4851512;29;20052;-83
2022/06/11 10:40:27;;;;;;;10.77;2.92;;;23.50;93.60;;;;;;4828570;29;20144;-80
2022/06/11 10:43:05;;;;;;;7.57;2.40;;;23.40;74.90;;;;;;4870919;29;20048;-81
2022/06/11 10:45:31;;;;;;;11.40;2.60;;;23.20;93.30;;;;;;4862444;29;20127;-83
2022/06/11 10:47:59;;;;;;;11.75;3.08;;;23.20;96.90;;;;;;4851133;29;20442;-82
2022/06/11 10:50:33;;;;;;;10.40;2.70;;;23.30;98.90;;;;;;4854448;29;20100;-82
2022/06/11 10:53:14;;;;;;;8.02;2.53;;;23.40;85.30;;;;;;4871986;29;20132;-80
2022/06/11 10:55:49;;;;;;;7.50;2.72;;;23.40;94.30;;;;;;4846093;29;20055;-82
2022/06/11 10:58:28;;;;;;;9.55;2.60;;;23.40;89.80;;;;;;4878091;29;20169;-80
2022/06/11 11:01:03;;;;;;;8.25;2.83;;;23.50;87.70;;;;;;4861805;29;20117;-83
2022/06/11 11:03:50;;;;;;;10.45;2.63;;;23.60;78.00;;;;;;4846193;29;20060;-81
2022/06/11 11:06:24;;;;;;;9.10;2.55;;;23.70;90.10;;;;;;4858234;29;20104;-82
2022/06/11 11:08:53;;;;;;;12.38;3.10;;;23.60;86.80;;;;;;4828177;29;20077;-82
2022/06/11 11:11:19;;;;;;;10.90;3.45;;;23.50;83.80;;;;;;4858813;29;20041;-82
2022/06/11 11:13:46;;;;;;;12.52;3.05;;;23.60;94.20;;;;;;4875696;29;20071;-82
2022/06/11 11:16:11;;;;;;;12.40;3.15;;;23.70;92.20;;;;;;4839765;29;20036;-79
2022/06/11 11:19:04;;;;;;;9.02;2.78;;;23.70;91.50;;;;;;4862947;29;20619;-81
2022/06/11 11:21:47;;;;;;;9.07;2.58;;;23.60;78.50;;;;;;4854373;29;20068;-81
2022/06/11 11:24:16;;;;;;;9.50;2.95;;;23.50;75.50;;;;;;4845467;29;20144;-82
2022/06/11 11:26:49;;;;;;;9.10;2.80;;;23.60;87.60;;;;;;4845852;29;20119;-82
2022/06/11 11:29:29;;;;;;;9.25;2.75;;;23.70;87.60;;;;;;4849446;29;20048;-82
2022/06/11 11:32:02;;;;;;;9.00;2.70;;;23.80;72.80;;;;;;4846344;29;20097;-82
2022/06/11 11:34:31;;;;;;;9.45;2.47;;;23.60;84.10;;;;;;4831173;29;20476;-83
2022/06/11 11:37:12;;;;;;;10.77;3.25;;;23.50;86.30;;;;;;4863774;29;20040;-82
2022/06/11 11:39:38;;;;;;;9.33;2.93;;;23.30;76.80;;;;;;4867370;29;20256;-83
2022/06/11 11:42:06;;;;;;;12.85;2.95;;;22.80;89.20;;;;;;4848950;29;20598;-82
2022/06/11 11:44:50;;;;;;;8.05;2.55;;;22.60;91.50;;;;;;4864337;29;20056;-82
2022/06/11 11:47:33;;;;;;;10.38;2.50;;;22.60;90.00;;;;;;4866047;29;20045;-81
2022/06/11 11:50:16;;;;;;;9.80;2.58;;;22.90;89.00;;;;;;4857333;29;20104;-82
2022/06/11 11:52:45;;;;;;;7.85;2.92;;;23.10;87.00;;;;;;4880743;29;20044;-81
2022/06/11 11:55:26;;;;;;;13.80;3.53;;;23.20;85.20;;;;;;4872941;29;20052;-83
2022/06/11 11:58:21;;;;;;;9.07;2.73;;;23.10;85.60;;;;;;4859193;29;20037;-83
2022/06/11 12:00:55;;;;;;;12.45;2.97;;;23.20;90.80;;;;;;4874376;29;20056;-82
2022/06/11 12:03:27;;;;;;;8.20;2.83;;;23.30;84.00;;;;;;4864898;29;20476;-81
2022/06/11 12:05:56;;;;;;;12.85;3.42;;;23.50;77.70;;;;;;4863109;29;20093;-81
2022/06/11 12:08:31;;;;;;;10.27;2.65;;;23.20;82.50;;;;;;4848890;29;20045;-82
2022/06/11 12:11:01;;;;;;;13.18;3.60;;;23.10;72.10;;;;;;4869064;29;20052;-82
2022/06/11 12:13:47;;;;;;;16.95;3.25;;;23.30;76.90;;;;;;4857902;29;20503;-82
2022/06/11 12:16:26;;;;;;;12.07;2.88;;;23.50;79.30;;;;;;4847840;29;20093;-83
2022/06/11 12:19:16;;;;;;;10.32;2.90;;;23.40;78.50;;;;;;4871767;29;20127;-82
2022/06/11 12:21:44;;;;;;;8.77;2.88;;;23.30;78.40;;;;;;4847809;29;20064;-80
2022/06/11 12:24:33;;;;;;;10.85;2.60;;;23.50;79.90;;;;;;4861291;29;20056;-82
2022/06/11 12:27:09;;;;;;;9.43;2.60;;;23.40;81.70;;;;;;4862658;29;20201;-82
2022/06/11 12:29:51;;;;;;;12.02;2.90;;;23.50;78.30;;;;;;4870216;29;20049;-83
2022/06/11 12:32:21;;;;;;;;;;;23.40;84.90;;;;;;4865844;29;20212;-83
2022/06/11 12:34:48;;;;;;;10.73;3.22;;;23.50;93.30;;;;;;4850114;29;20019;-82
2022/06/11 12:37:26;;;;;;;7.97;2.67;;;23.50;90.60;;;;;;4849928;29;20044;-82
2022/06/11 12:40:04;;;;;;;13.15;3.15;;;23.80;90.00;;;;;;4852119;29;20046;-83
2022/06/11 12:43:00;;;;;;;9.68;2.95;;;24.10;85.40;;;;;;4855744;29;20079;-85
2022/06/11 12:45:52;;;;;;;10.07;3.35;;;24.20;81.30;;;;;;4882226;29;20040;-82
2022/06/11 12:48:39;;;;;;;10.32;3.08;;;24.40;69.50;;;;;;4882051;29;20053;-82
2022/06/11 12:51:16;;;;;;;9.55;2.90;;;24.50;72.80;;;;;;4866970;29;20095;-83
2022/06/11 12:53:54;;;;;;;10.98;2.55;;;24.50;70.40;;;;;;4865934;29;20521;-82
2022/06/11 12:56:36;;;;;;;10.30;2.90;;;24.40;71.90;;;;;;4851595;29;20052;-83
2022/06/11 12:59:11;;;;;;;10.30;2.85;;;24.40;71.20;;;;;;4850040;29;20132;-83
2022/06/11 13:01:45;;;;;;;7.45;2.97;;;24.40;73.50;;;;;;4866581;29;20055;-83
2022/06/11 13:04:32;;;;;;;10.80;2.80;;;24.50;64.40;;;;;;4871838;29;20135;-84
2022/06/11 13:07:16;;;;;;;9.40;2.80;;;24.50;63.00;;;;;;4875114;29;20075;-83
2022/06/11 13:09:48;;;;;;;11.50;2.60;;;24.60;65.90;;;;;;4865289;29;20127;-81